createdAt,value
2018-07-27T00:00:32.984Z,45.27
2018-07-27T00:01:33.130Z,45.37
2018-07-27T00:02:33.273Z,45.25
2018-07-27T00:03:33.416Z,45.44
2018-07-27T00:04:33.569Z,45.34
2018-07-27T00:05:33.707Z,45.54
2018-07-27T00:06:33.854Z,45.44
2018-07-27T00:07:34.038Z,45.44
2018-07-27T00:08:34.180Z,44.96
2018-07-27T00:09:34.323Z,45.54
2018-07-27T00:10:34.894Z,45.34
2018-07-27T00:11:34.600Z,45.34
2018-07-27T00:12:34.740Z,45.83
2018-07-27T00:13:34.886Z,45.73
2018-07-27T00:14:35.055Z,45.64
2018-07-27T00:15:35.195Z,45.73
2018-07-27T00:16:35.397Z,45.92
2018-07-27T00:17:35.565Z,45.25
2018-07-27T00:18:35.699Z,45.92
2018-07-27T00:19:35.845Z,45.83
2018-07-27T00:20:36.008Z,45.92
2018-07-27T00:21:36.143Z,46.12
2018-07-27T00:22:36.282Z,46.22
2018-07-27T00:23:36.427Z,46.60
2018-07-27T00:24:36.608Z,46.22
2018-07-27T00:25:36.685Z,46.22
2018-07-27T00:26:36.827Z,46.22
2018-07-27T00:27:36.974Z,46.31
2018-07-27T00:28:37.123Z,46.41
2018-07-27T00:29:37.259Z,46.09
2018-07-27T00:30:37.417Z,46.29
2018-07-27T00:31:37.604Z,46.58
2018-07-27T00:32:37.749Z,46.58
2018-07-27T00:33:37.886Z,46.87
2018-07-27T00:34:38.023Z,46.58
2018-07-27T00:35:38.168Z,46.58
2018-07-27T00:36:38.308Z,46.87
2018-07-27T00:37:38.447Z,46.97
2018-07-27T00:38:38.594Z,47.26
2018-07-27T00:39:38.739Z,47.16
2018-07-27T00:40:38.884Z,46.67
2018-07-27T00:41:39.036Z,47.06
2018-07-27T00:42:39.182Z,47.36
2018-07-27T00:43:39.318Z,46.97
2018-07-27T00:44:39.460Z,46.97
2018-07-27T00:45:39.610Z,47.16
2018-07-27T00:46:39.751Z,47.36
2018-07-27T00:47:39.889Z,47.06
2018-07-27T00:48:40.035Z,47.16
2018-07-27T00:49:40.185Z,47.36
2018-07-27T00:50:40.323Z,47.43
2018-07-27T00:51:40.476Z,47.36
2018-07-27T00:52:40.616Z,47.52
2018-07-27T00:53:40.759Z,47.52
2018-07-27T00:54:40.906Z,47.43
2018-07-27T00:55:41.051Z,48.30
2018-07-27T00:56:41.224Z,48.11
2018-07-27T00:57:41.351Z,47.72
2018-07-27T00:58:41.540Z,47.81
2018-07-27T00:59:41.669Z,47.62
2018-07-27T01:00:41.810Z,48.01
2018-07-27T01:01:42.007Z,48.30
2018-07-27T01:02:42.061Z,48.11
2018-07-27T01:03:42.191Z,48.39
2018-07-27T01:04:42.354Z,48.47
2018-07-27T01:05:42.511Z,48.11
2018-07-27T01:06:42.648Z,48.08
2018-07-27T01:07:42.785Z,48.49
2018-07-27T01:08:42.931Z,48.39
2018-07-27T01:09:43.073Z,48.47
2018-07-27T01:10:43.232Z,48.57
2018-07-27T01:11:43.404Z,48.76
2018-07-27T01:12:43.538Z,49.15
2018-07-27T01:13:43.697Z,48.95
2018-07-27T01:14:43.857Z,48.76
2018-07-27T01:15:43.997Z,48.76
2018-07-27T01:16:44.147Z,48.86
2018-07-27T01:17:44.290Z,48.95
2018-07-27T01:18:44.431Z,48.95
2018-07-27T01:19:44.579Z,48.76
2018-07-27T01:20:44.719Z,48.86
2018-07-27T01:21:44.865Z,49.05
2018-07-27T01:22:45.009Z,49.24
2018-07-27T01:23:45.151Z,49.24
2018-07-27T01:24:45.288Z,49.15
2018-07-27T01:25:45.428Z,49.05
2018-07-27T01:26:45.571Z,49.34
2018-07-27T01:27:45.713Z,49.54
2018-07-27T01:28:45.857Z,49.63
2018-07-27T01:29:45.998Z,49.34
2018-07-27T01:30:46.139Z,49.44
2018-07-27T01:31:46.290Z,49.32
2018-07-27T01:32:46.414Z,49.51
2018-07-27T01:33:46.555Z,49.63
2018-07-27T01:34:46.700Z,49.44
2018-07-27T01:35:46.837Z,49.34
2018-07-27T01:36:46.979Z,49.51
2018-07-27T01:37:47.125Z,49.60
2018-07-27T01:38:47.263Z,49.70
2018-07-27T01:39:47.404Z,49.92
2018-07-27T01:40:47.540Z,50.28
2018-07-27T01:41:47.681Z,50.38
2018-07-27T01:42:47.824Z,50.28
2018-07-27T01:43:47.964Z,50.09
2018-07-27T01:44:48.127Z,49.90
2018-07-27T01:45:48.266Z,50.09
2018-07-27T01:46:48.415Z,50.09
2018-07-27T01:47:48.573Z,50.09
2018-07-27T01:48:48.710Z,50.18
2018-07-27T01:49:48.851Z,50.28
2018-07-27T01:50:49.045Z,50.67
2018-07-27T01:51:49.154Z,50.57
2018-07-27T01:52:49.304Z,50.57
2018-07-27T01:53:49.445Z,50.76
2018-07-27T01:54:49.581Z,50.76
2018-07-27T01:55:49.722Z,50.28
2018-07-27T01:56:49.923Z,50.38
2018-07-27T01:57:50.016Z,50.57
2018-07-27T01:58:50.161Z,50.65
2018-07-27T01:59:50.312Z,50.76
2018-07-27T02:00:50.439Z,50.86
2018-07-27T02:01:50.578Z,50.57
2018-07-27T02:02:50.758Z,50.74
2018-07-27T02:03:50.888Z,50.84
2018-07-27T02:04:51.021Z,50.76
2018-07-27T02:05:51.187Z,50.65
2018-07-27T02:06:51.316Z,51.06
2018-07-27T02:07:51.485Z,51.13
2018-07-27T02:08:51.624Z,51.13
2018-07-27T02:09:51.764Z,51.03
2018-07-27T02:10:51.930Z,51.23
2018-07-27T02:11:52.068Z,51.03
2018-07-27T02:12:52.211Z,51.32
2018-07-27T02:13:52.355Z,51.51
2018-07-27T02:14:52.500Z,51.42
2018-07-27T02:15:52.646Z,51.42
2018-07-27T02:16:52.789Z,51.71
2018-07-27T02:17:52.923Z,51.81
2018-07-27T02:18:53.066Z,52.09
2018-07-27T02:19:53.210Z,52.00
2018-07-27T02:20:53.351Z,52.19
2018-07-27T02:21:53.500Z,51.90
2018-07-27T02:22:53.650Z,51.71
2018-07-27T02:23:53.799Z,51.90
2018-07-27T02:24:53.940Z,51.81
2018-07-27T02:25:54.081Z,52.09
2018-07-27T02:26:54.227Z,52.29
2018-07-27T02:27:54.371Z,52.29
2018-07-27T02:28:54.513Z,52.19
2018-07-27T02:29:54.655Z,52.19
2018-07-27T02:30:54.797Z,52.67
2018-07-27T02:31:54.939Z,52.55
2018-07-27T02:32:55.079Z,52.48
2018-07-27T02:33:55.316Z,52.75
2018-07-27T02:34:55.365Z,52.45
2018-07-27T02:35:55.493Z,52.65
2018-07-27T02:36:55.662Z,52.84
2018-07-27T02:37:55.805Z,52.94
2018-07-27T02:38:56.013Z,53.03
2018-07-27T02:39:56.042Z,52.94
2018-07-27T02:40:56.162Z,52.94
2018-07-27T02:41:56.299Z,52.75
2018-07-27T02:42:56.442Z,53.03
2018-07-27T02:43:56.583Z,53.13
2018-07-27T02:44:56.744Z,53.13
2018-07-27T02:45:56.879Z,53.03
2018-07-27T02:46:57.054Z,53.13
2018-07-27T02:47:57.202Z,53.23
2018-07-27T02:48:57.343Z,53.42
2018-07-27T02:49:57.489Z,53.52
2018-07-27T02:50:57.647Z,53.61
2018-07-27T02:51:57.782Z,53.33
2018-07-27T02:52:57.927Z,53.71
2018-07-27T02:53:58.065Z,53.71
2018-07-27T02:54:58.205Z,53.49
2018-07-27T02:55:58.347Z,53.88
2018-07-27T02:56:58.488Z,53.78
2018-07-27T02:57:58.637Z,53.97
2018-07-27T02:58:58.772Z,53.78
2018-07-27T02:59:58.932Z,53.88
2018-07-27T03:00:59.090Z,53.69
2018-07-27T03:01:59.227Z,53.88
2018-07-27T03:02:59.375Z,53.88
2018-07-27T03:03:59.515Z,53.88
2018-07-27T03:04:59.660Z,53.88
2018-07-27T03:05:59.800Z,53.88
2018-07-27T03:06:59.943Z,54.17
2018-07-27T03:08:00.083Z,54.17
2018-07-27T03:09:00.227Z,53.88
2018-07-27T03:10:00.364Z,53.88
2018-07-27T03:11:00.507Z,53.69
2018-07-27T03:12:00.647Z,53.88
2018-07-27T03:13:00.778Z,53.69
2018-07-27T03:14:00.925Z,53.88
2018-07-27T03:15:01.068Z,53.78
2018-07-27T03:16:01.215Z,53.78
2018-07-27T03:17:01.356Z,53.78
2018-07-27T03:18:01.498Z,53.97
2018-07-27T03:19:01.631Z,53.88
2018-07-27T03:20:01.778Z,53.97
2018-07-27T03:21:01.920Z,54.27
2018-07-27T03:22:02.051Z,54.36
2018-07-27T03:23:02.194Z,53.69
2018-07-27T03:24:02.339Z,54.17
2018-07-27T03:25:02.477Z,53.59
2018-07-27T03:26:02.617Z,53.88
2018-07-27T03:27:02.760Z,53.88
2018-07-27T03:28:02.908Z,53.97
2018-07-27T03:29:03.045Z,53.88
2018-07-27T03:30:03.207Z,54.07
2018-07-27T03:31:03.368Z,53.97
2018-07-27T03:32:03.499Z,53.88
2018-07-27T03:33:03.657Z,53.88
2018-07-27T03:34:03.798Z,53.78
2018-07-27T03:35:03.931Z,53.88
2018-07-27T03:36:04.074Z,54.27
2018-07-27T03:37:04.217Z,54.27
2018-07-27T03:38:04.357Z,53.69
2018-07-27T03:39:04.493Z,54.27
2018-07-27T03:40:04.644Z,53.97
2018-07-27T03:41:04.782Z,54.17
2018-07-27T03:42:04.957Z,54.55
2018-07-27T03:43:05.090Z,54.27
2018-07-27T03:44:05.215Z,54.65
2018-07-27T03:45:05.362Z,54.65
2018-07-27T03:46:05.499Z,54.55
2018-07-27T03:47:05.644Z,54.55
2018-07-27T03:48:05.794Z,54.36
2018-07-27T03:49:05.926Z,54.46
2018-07-27T03:50:06.067Z,55.13
2018-07-27T03:51:06.221Z,54.94
2018-07-27T03:52:06.355Z,55.33
2018-07-27T03:53:06.511Z,55.04
2018-07-27T03:54:06.652Z,55.23
2018-07-27T03:55:06.790Z,55.04
2018-07-27T03:56:06.925Z,54.94
2018-07-27T03:57:07.065Z,55.33
2018-07-27T03:58:07.203Z,55.42
2018-07-27T03:59:07.347Z,55.42
2018-07-27T04:00:07.495Z,56.29
2018-07-27T04:01:07.638Z,56.00
2018-07-27T04:02:07.835Z,56.10
2018-07-27T04:03:07.932Z,56.26
2018-07-27T04:04:08.070Z,55.62
2018-07-27T04:05:08.210Z,55.98
2018-07-27T04:06:08.353Z,55.98
2018-07-27T04:07:08.493Z,55.88
2018-07-27T04:08:08.632Z,55.81
2018-07-27T04:09:08.774Z,55.88
2018-07-27T04:10:08.948Z,55.98
2018-07-27T04:11:09.053Z,55.88
2018-07-27T04:12:09.196Z,56.36
2018-07-27T04:13:09.336Z,55.98
2018-07-27T04:14:09.476Z,55.98
2018-07-27T04:15:09.617Z,55.88
2018-07-27T04:16:09.760Z,55.88
2018-07-27T04:17:09.903Z,56.07
2018-07-27T04:18:10.039Z,55.88
2018-07-27T04:19:10.183Z,55.98
2018-07-27T04:20:10.329Z,55.49
2018-07-27T04:21:10.485Z,55.78
2018-07-27T04:22:10.619Z,56.07
2018-07-27T04:23:10.801Z,56.10
2018-07-27T04:24:10.960Z,55.81
2018-07-27T04:25:11.082Z,56.20
2018-07-27T04:26:11.225Z,56.00
2018-07-27T04:27:11.373Z,56.58
2018-07-27T04:28:11.513Z,56.29
2018-07-27T04:29:11.680Z,56.39
2018-07-27T04:30:11.822Z,56.39
2018-07-27T04:31:11.960Z,56.20
2018-07-27T04:32:12.118Z,56.48
2018-07-27T04:33:12.247Z,56.39
2018-07-27T04:34:12.392Z,56.29
2018-07-27T04:35:12.553Z,56.48
2018-07-27T04:36:12.713Z,56.58
2018-07-27T04:37:12.842Z,56.77
2018-07-27T04:38:13.003Z,56.58
2018-07-27T04:39:13.147Z,56.20
2018-07-27T04:40:13.286Z,56.58
2018-07-27T04:41:13.446Z,56.48
2018-07-27T04:42:13.583Z,56.58
2018-07-27T04:43:13.728Z,56.68
2018-07-27T04:44:13.871Z,56.77
2018-07-27T04:45:14.013Z,57.14
2018-07-27T04:46:14.158Z,57.71
2018-07-27T04:47:14.299Z,58.00
2018-07-27T04:48:14.447Z,57.71
2018-07-27T04:49:14.589Z,57.81
2018-07-27T04:50:14.729Z,57.90
2018-07-27T04:51:14.875Z,58.00
2018-07-27T04:52:15.014Z,57.52
2018-07-27T04:53:15.156Z,57.62
2018-07-27T04:54:15.296Z,58.00
2018-07-27T04:55:15.433Z,57.81
2018-07-27T04:56:15.615Z,58.00
2018-07-27T04:57:15.714Z,58.48
2018-07-27T04:58:15.855Z,58.84
2018-07-27T04:59:15.990Z,59.32
2018-07-27T05:00:16.130Z,59.61
2018-07-27T05:01:16.271Z,60.74
2018-07-27T05:02:16.406Z,60.35
2018-07-27T05:03:16.556Z,60.64
2018-07-27T05:04:16.695Z,60.74
2018-07-27T05:05:16.834Z,60.64
2018-07-27T05:06:16.969Z,61.90
2018-07-27T05:07:17.110Z,61.77
2018-07-27T05:08:17.252Z,61.38
2018-07-27T05:09:17.397Z,61.38
2018-07-27T05:10:17.547Z,61.99
2018-07-27T05:11:17.684Z,60.64
2018-07-27T05:12:17.828Z,60.45
2018-07-27T05:13:17.970Z,60.93
2018-07-27T05:14:18.121Z,61.03
2018-07-27T05:15:18.270Z,60.38
2018-07-27T05:16:18.412Z,60.48
2018-07-27T05:17:18.554Z,60.28
2018-07-27T05:18:18.719Z,60.48
2018-07-27T05:19:18.842Z,60.74
2018-07-27T05:20:18.979Z,60.86
2018-07-27T05:21:19.138Z,60.38
2018-07-27T05:22:19.278Z,60.64
2018-07-27T05:23:19.505Z,60.10
2018-07-27T05:24:19.582Z,59.80
2018-07-27T05:25:19.685Z,59.80
2018-07-27T05:26:19.815Z,59.80
2018-07-27T05:27:20.004Z,59.32
2018-07-27T05:28:20.120Z,58.97
2018-07-27T05:29:20.281Z,58.58
2018-07-27T05:30:20.442Z,58.77
2018-07-27T05:31:20.663Z,58.80
2018-07-27T05:32:20.678Z,58.48
2018-07-27T05:33:20.829Z,58.03
2018-07-27T05:34:21.014Z,57.93
2018-07-27T05:35:21.104Z,57.74
2018-07-27T05:36:21.267Z,57.93
2018-07-27T05:37:21.405Z,57.93
2018-07-27T05:38:21.551Z,57.84
2018-07-27T05:39:21.707Z,57.74
2018-07-27T05:40:21.851Z,57.45
2018-07-27T05:41:21.985Z,56.99
2018-07-27T05:42:22.157Z,56.99
2018-07-27T05:43:22.304Z,57.09
2018-07-27T05:44:22.444Z,56.90
2018-07-27T05:45:22.611Z,56.80
2018-07-27T05:46:22.740Z,57.09
2018-07-27T05:47:22.881Z,56.99
2018-07-27T05:48:23.071Z,56.71
2018-07-27T05:49:23.182Z,56.32
2018-07-27T05:50:23.323Z,56.71
2018-07-27T05:51:23.468Z,56.90
2018-07-27T05:52:23.608Z,56.71
2018-07-27T05:53:23.754Z,56.71
2018-07-27T05:54:23.888Z,56.71
2018-07-27T05:55:24.027Z,56.80
2018-07-27T05:56:24.172Z,56.90
2018-07-27T05:57:24.324Z,56.99
2018-07-27T05:58:24.464Z,56.99
2018-07-27T05:59:24.662Z,56.71
2018-07-27T06:00:24.742Z,56.51
2018-07-27T06:01:24.887Z,56.45
2018-07-27T06:02:25.036Z,56.25
2018-07-27T06:03:25.173Z,56.73
2018-07-27T06:04:25.315Z,56.15
2018-07-27T06:05:25.465Z,55.96
2018-07-27T06:06:25.616Z,55.47
2018-07-27T06:07:25.754Z,55.57
2018-07-27T06:08:25.890Z,55.87
2018-07-27T06:09:26.030Z,56.05
2018-07-27T06:10:26.171Z,56.15
2018-07-27T06:11:26.318Z,55.99
2018-07-27T06:12:26.463Z,56.28
2018-07-27T06:13:26.607Z,55.41
2018-07-27T06:14:26.784Z,55.31
2018-07-27T06:15:26.892Z,55.70
2018-07-27T06:16:27.022Z,55.41
2018-07-27T06:17:27.165Z,55.21
2018-07-27T06:18:27.311Z,54.93
2018-07-27T06:19:27.460Z,55.11
2018-07-27T06:20:27.609Z,54.83
2018-07-27T06:21:27.755Z,55.05
2018-07-27T06:22:27.894Z,54.93
2018-07-27T06:23:28.032Z,54.66
2018-07-27T06:24:28.183Z,55.02
2018-07-27T06:25:28.308Z,55.24
2018-07-27T06:26:28.449Z,55.15
2018-07-27T06:27:28.593Z,54.57
2018-07-27T06:28:28.735Z,54.85
2018-07-27T06:29:28.875Z,55.02
2018-07-27T06:30:29.016Z,55.21
2018-07-27T06:31:29.161Z,54.95
2018-07-27T06:32:29.304Z,55.24
2018-07-27T06:33:29.461Z,55.53
2018-07-27T06:34:29.602Z,55.24
2018-07-27T06:35:29.742Z,55.05
2018-07-27T06:36:29.886Z,55.24
2018-07-27T06:37:30.044Z,54.66
2018-07-27T06:38:30.216Z,54.75
2018-07-27T06:39:30.351Z,54.85
2018-07-27T06:40:30.492Z,54.21
2018-07-27T06:41:30.650Z,54.69
2018-07-27T06:42:30.789Z,54.49
2018-07-27T06:43:30.930Z,53.91
2018-07-27T06:44:31.083Z,53.91
2018-07-27T06:45:31.233Z,53.81
2018-07-27T06:46:31.366Z,53.91
2018-07-27T06:47:31.531Z,53.81
2018-07-27T06:48:31.669Z,53.33
2018-07-27T06:49:31.807Z,53.23
2018-07-27T06:50:31.966Z,53.33
2018-07-27T06:51:32.109Z,53.04
2018-07-27T06:52:32.318Z,53.26
2018-07-27T06:53:32.425Z,53.17
2018-07-27T06:54:32.544Z,52.97
2018-07-27T06:55:32.694Z,52.97
2018-07-27T06:56:32.853Z,53.45
2018-07-27T06:57:32.984Z,52.97
2018-07-27T06:58:33.129Z,53.07
2018-07-27T06:59:33.288Z,53.00
2018-07-27T07:00:33.427Z,52.61
2018-07-27T07:01:33.581Z,52.90
2018-07-27T07:02:33.722Z,52.51
2018-07-27T07:03:33.916Z,52.22
2018-07-27T07:04:34.043Z,52.42
2018-07-27T07:05:34.177Z,52.06
2018-07-27T07:06:34.322Z,51.96
2018-07-27T07:07:34.483Z,52.06
2018-07-27T07:08:34.601Z,52.34
2018-07-27T07:09:34.745Z,51.57
2018-07-27T07:10:34.890Z,51.28
2018-07-27T07:11:35.058Z,51.37
2018-07-27T07:12:35.190Z,51.28
2018-07-27T07:13:35.359Z,51.28
2018-07-27T07:14:35.512Z,50.79
2018-07-27T07:15:35.636Z,50.89
2018-07-27T07:16:35.813Z,51.09
2018-07-27T07:17:35.947Z,50.92
2018-07-27T07:18:36.085Z,51.01
2018-07-27T07:19:36.247Z,50.92
2018-07-27T07:20:36.382Z,50.82
2018-07-27T07:21:36.529Z,50.82
2018-07-27T07:22:36.685Z,50.24
2018-07-27T07:23:36.821Z,50.34
2018-07-27T07:24:36.967Z,50.84
2018-07-27T07:25:37.260Z,50.72
2018-07-27T07:26:37.246Z,50.65
2018-07-27T07:27:37.386Z,50.74
2018-07-27T07:28:37.540Z,50.36
2018-07-27T07:29:37.685Z,50.65
2018-07-27T07:30:37.826Z,49.58
2018-07-27T07:31:37.983Z,49.87
2018-07-27T07:32:38.119Z,49.68
2018-07-27T07:33:38.255Z,49.49
2018-07-27T07:34:38.405Z,49.22
2018-07-27T07:35:38.545Z,49.22
2018-07-27T07:36:38.712Z,49.32
2018-07-27T07:37:38.830Z,48.93
2018-07-27T07:38:38.984Z,49.12
2018-07-27T07:39:39.128Z,49.22
2018-07-27T07:40:39.266Z,49.02
2018-07-27T07:41:39.408Z,48.93
2018-07-27T07:42:39.560Z,48.73
2018-07-27T07:43:39.794Z,48.64
2018-07-27T07:44:39.862Z,48.35
2018-07-27T07:45:40.009Z,48.05
2018-07-27T07:46:40.164Z,48.08
2018-07-27T07:47:40.308Z,47.98
2018-07-27T07:48:40.446Z,48.25
2018-07-27T07:49:40.594Z,47.49
2018-07-27T07:50:40.740Z,47.69
2018-07-27T07:51:40.887Z,47.69
2018-07-27T07:52:41.040Z,47.40
2018-07-27T07:53:41.183Z,47.59
2018-07-27T07:54:41.327Z,47.30
2018-07-27T07:55:41.498Z,47.01
2018-07-27T07:56:41.643Z,46.91
2018-07-27T07:57:41.787Z,47.11
2018-07-27T07:58:41.994Z,46.84
2018-07-27T07:59:42.140Z,46.94
2018-07-27T08:00:42.266Z,46.84
2018-07-27T08:01:42.420Z,46.94
2018-07-27T08:02:42.601Z,46.84
2018-07-27T08:03:42.709Z,46.84
2018-07-27T08:04:42.861Z,46.94
2018-07-27T08:05:43.009Z,46.84
2018-07-27T08:06:43.160Z,47.03
2018-07-27T08:07:43.294Z,46.84
2018-07-27T08:08:43.447Z,46.25
2018-07-27T08:09:43.597Z,46.45
2018-07-27T08:10:43.747Z,46.25
2018-07-27T08:11:43.897Z,45.97
2018-07-27T08:12:44.045Z,46.08
2018-07-27T08:13:44.190Z,46.18
2018-07-27T08:14:44.328Z,45.69
2018-07-27T08:15:44.507Z,45.69
2018-07-27T08:16:44.694Z,45.69
2018-07-27T08:17:44.839Z,45.21
2018-07-27T08:18:44.979Z,44.82
2018-07-27T08:19:45.123Z,45.60
2018-07-27T08:20:45.268Z,44.82
2018-07-27T08:21:45.396Z,45.40
2018-07-27T08:22:45.536Z,44.92
2018-07-27T08:23:45.693Z,45.04
2018-07-27T08:24:45.835Z,44.74
2018-07-27T08:25:45.972Z,44.65
2018-07-27T08:26:46.128Z,44.55
2018-07-27T08:27:46.277Z,44.45
2018-07-27T08:28:46.417Z,44.65
2018-07-27T08:29:46.576Z,44.65
2018-07-27T08:30:46.708Z,44.45
2018-07-27T08:31:46.852Z,43.48
2018-07-27T08:32:47.008Z,43.19
2018-07-27T08:33:47.240Z,43.38
2018-07-27T08:34:47.327Z,43.40
2018-07-27T08:35:47.485Z,43.21
2018-07-27T08:36:47.631Z,43.01
2018-07-27T08:37:47.776Z,42.91
2018-07-27T08:38:47.919Z,43.01
2018-07-27T08:39:48.135Z,43.30
2018-07-27T08:40:48.221Z,43.30
2018-07-27T08:41:48.360Z,43.11
2018-07-27T08:42:48.504Z,42.91
2018-07-27T08:43:48.652Z,42.65
2018-07-27T08:44:48.790Z,42.35
2018-07-27T08:45:48.937Z,42.65
2018-07-27T08:46:49.085Z,41.67
2018-07-27T08:47:49.238Z,41.96
2018-07-27T08:48:49.385Z,41.48
2018-07-27T08:49:49.536Z,41.38
2018-07-27T08:50:49.681Z,40.80
2018-07-27T08:51:49.826Z,40.80
2018-07-27T08:52:49.976Z,41.09
2018-07-27T08:53:50.120Z,40.01
2018-07-27T08:54:50.264Z,40.31
2018-07-27T08:55:50.409Z,40.31
2018-07-27T08:56:50.550Z,40.21
2018-07-27T08:57:50.697Z,40.21
2018-07-27T08:58:50.850Z,40.60
2018-07-27T08:59:50.993Z,39.62
2018-07-27T09:00:51.142Z,39.34
2018-07-27T09:01:51.282Z,39.72
2018-07-27T09:02:51.429Z,40.03
2018-07-27T09:03:51.641Z,40.23
2018-07-27T09:04:51.736Z,39.92
2018-07-27T09:05:51.874Z,40.23
2018-07-27T09:06:52.010Z,40.33
2018-07-27T09:07:52.160Z,40.42
2018-07-27T09:08:52.298Z,40.33
2018-07-27T09:09:52.701Z,40.23
2018-07-27T09:10:52.827Z,39.84
2018-07-27T09:11:52.801Z,39.45
2018-07-27T09:12:52.945Z,38.28
2018-07-27T09:13:53.099Z,38.57
2018-07-27T09:14:53.257Z,38.09
2018-07-27T09:15:53.394Z,38.10
2018-07-27T09:16:53.547Z,38.30
2018-07-27T09:17:53.689Z,38.49
2018-07-27T09:18:53.829Z,38.30
2018-07-27T09:19:53.981Z,38.59
2018-07-27T09:20:54.160Z,39.08
2018-07-27T09:21:54.299Z,39.37
2018-07-27T09:22:54.441Z,39.18
2018-07-27T09:23:54.585Z,39.08
2018-07-27T09:24:54.879Z,38.20
2018-07-27T09:25:54.892Z,37.91
2018-07-27T09:26:55.031Z,37.52
2018-07-27T09:27:55.174Z,38.20
2018-07-27T09:28:55.320Z,38.10
2018-07-27T09:29:55.465Z,38.12
2018-07-27T09:30:55.606Z,37.93
2018-07-27T09:31:55.746Z,38.12
2018-07-27T09:32:55.883Z,38.12
2018-07-27T09:33:56.044Z,38.81
2018-07-27T09:34:56.192Z,38.81
2018-07-27T09:35:56.373Z,38.42
2018-07-27T09:36:56.503Z,38.42
2018-07-27T09:37:56.648Z,38.12
2018-07-27T09:38:56.799Z,37.45
2018-07-27T09:39:56.942Z,38.02
2018-07-27T09:40:57.089Z,37.73
2018-07-27T09:41:57.261Z,38.22
2018-07-27T09:42:57.396Z,37.83
2018-07-27T09:43:57.538Z,38.32
2018-07-27T09:44:57.710Z,37.93
2018-07-27T09:45:57.839Z,38.22
2018-07-27T09:46:57.992Z,38.90
2018-07-27T09:47:58.161Z,39.29
2018-07-27T09:48:58.304Z,38.92
2018-07-27T09:49:58.445Z,39.31
2018-07-27T09:50:58.610Z,39.31
2018-07-27T09:51:58.737Z,39.31
2018-07-27T09:52:58.879Z,38.63
2018-07-27T09:53:59.027Z,38.63
2018-07-27T09:54:59.165Z,38.22
2018-07-27T09:55:59.309Z,38.24
2018-07-27T09:56:59.480Z,38.32
2018-07-27T09:57:59.673Z,38.73
2018-07-27T09:58:59.762Z,38.14
2018-07-27T09:59:59.902Z,38.92
2018-07-27T10:01:00.090Z,38.73
2018-07-27T10:02:00.208Z,38.82
2018-07-27T10:03:00.361Z,38.92
2018-07-27T10:04:00.508Z,38.53
2018-07-27T10:05:00.656Z,37.65
2018-07-27T10:06:00.802Z,37.37
2018-07-27T10:07:00.947Z,37.75
2018-07-27T10:08:01.091Z,37.37
2018-07-27T10:09:01.238Z,37.65
2018-07-27T10:10:01.389Z,38.24
2018-07-27T10:11:01.535Z,38.04
2018-07-27T10:12:01.681Z,38.04
2018-07-27T10:13:01.826Z,38.04
2018-07-27T10:14:01.972Z,38.04
2018-07-27T10:15:02.119Z,38.53
2018-07-27T10:16:02.259Z,38.16
2018-07-27T10:17:02.408Z,37.57
2018-07-27T10:18:02.550Z,37.96
2018-07-27T10:19:02.692Z,38.16
2018-07-27T10:20:02.836Z,37.29
2018-07-27T10:21:02.982Z,37.77
2018-07-27T10:22:03.131Z,37.40
2018-07-27T10:23:03.275Z,37.89
2018-07-27T10:24:03.463Z,37.38
2018-07-27T10:25:03.618Z,37.60
2018-07-27T10:26:03.714Z,37.50
2018-07-27T10:27:03.871Z,37.21
2018-07-27T10:28:04.024Z,37.70
2018-07-27T10:29:04.166Z,36.62
2018-07-27T10:30:04.307Z,35.06
2018-07-27T10:31:04.467Z,34.28
2018-07-27T10:32:04.600Z,34.18
2018-07-27T10:33:04.741Z,34.86
2018-07-27T10:34:04.888Z,35.35
2018-07-27T10:35:05.032Z,35.55
2018-07-27T10:36:05.185Z,35.35
2018-07-27T10:37:05.333Z,35.16
2018-07-27T10:38:05.482Z,35.46
2018-07-27T10:39:05.631Z,35.17
2018-07-27T10:40:05.773Z,35.95
2018-07-27T10:41:05.925Z,35.46
2018-07-27T10:42:06.072Z,35.07
2018-07-27T10:43:06.221Z,35.07
2018-07-27T10:44:06.363Z,35.27
2018-07-27T10:45:06.512Z,34.68
2018-07-27T10:46:06.659Z,34.97
2018-07-27T10:47:06.799Z,35.68
2018-07-27T10:48:06.949Z,34.89
2018-07-27T10:49:07.093Z,35.28
2018-07-27T10:50:07.328Z,35.09
2018-07-27T10:51:07.404Z,34.50
2018-07-27T10:52:07.554Z,34.50
2018-07-27T10:53:07.704Z,35.09
2018-07-27T10:54:07.847Z,34.11
2018-07-27T10:55:07.994Z,34.70
2018-07-27T10:56:08.141Z,34.60
2018-07-27T10:57:08.300Z,34.50
2018-07-27T10:58:08.444Z,34.21
2018-07-27T10:59:08.608Z,34.21
2018-07-27T11:00:08.758Z,33.74
2018-07-27T11:01:08.904Z,34.72
2018-07-27T11:02:09.129Z,34.62
2018-07-27T11:03:09.146Z,34.33
2018-07-27T11:04:09.292Z,34.42
2018-07-27T11:05:09.463Z,34.42
2018-07-27T11:06:09.599Z,34.52
2018-07-27T11:07:09.746Z,34.72
2018-07-27T11:08:09.905Z,34.52
2018-07-27T11:09:10.051Z,34.23
2018-07-27T11:10:10.228Z,34.64
2018-07-27T11:11:10.367Z,34.14
2018-07-27T11:12:10.512Z,34.13
2018-07-27T11:13:10.670Z,34.14
2018-07-27T11:14:10.818Z,34.24
2018-07-27T11:15:11.015Z,33.65
2018-07-27T11:16:11.130Z,34.14
2018-07-27T11:17:11.275Z,34.14
2018-07-27T11:18:11.420Z,33.75
2018-07-27T11:19:11.565Z,33.85
2018-07-27T11:20:11.706Z,33.56
2018-07-27T11:21:11.854Z,33.56
2018-07-27T11:22:12.016Z,33.56
2018-07-27T11:23:12.164Z,33.65
2018-07-27T11:24:12.305Z,33.36
2018-07-27T11:25:12.455Z,33.85
2018-07-27T11:26:12.608Z,33.56
2018-07-27T11:27:12.763Z,33.46
2018-07-27T11:28:12.906Z,33.17
2018-07-27T11:29:13.055Z,32.58
2018-07-27T11:30:13.207Z,32.78
2018-07-27T11:31:13.351Z,32.87
2018-07-27T11:32:13.502Z,33.07
2018-07-27T11:33:13.652Z,32.97
2018-07-27T11:34:13.807Z,32.78
2018-07-27T11:35:13.954Z,32.68
2018-07-27T11:36:14.098Z,32.87
2018-07-27T11:37:14.250Z,32.68
2018-07-27T11:38:14.393Z,32.87
2018-07-27T11:39:14.537Z,32.58
2018-07-27T11:40:14.694Z,32.97
2018-07-27T11:41:14.841Z,32.68
2018-07-27T11:42:14.996Z,32.87
2018-07-27T11:43:15.128Z,33.17
2018-07-27T11:44:15.272Z,33.07
2018-07-27T11:45:15.440Z,31.90
2018-07-27T11:46:15.600Z,31.90
2018-07-27T11:47:15.743Z,32.30
2018-07-27T11:48:16.686Z,31.51
2018-07-27T11:49:15.983Z,31.99
2018-07-27T11:50:16.136Z,31.81
2018-07-27T11:51:16.288Z,32.19
2018-07-27T11:52:16.440Z,32.48
2018-07-27T11:53:16.581Z,32.09
2018-07-27T11:54:16.724Z,31.91
2018-07-27T11:55:16.876Z,32.50
2018-07-27T11:56:17.024Z,32.51
2018-07-27T11:57:17.179Z,32.22
2018-07-27T11:58:17.324Z,32.61
2018-07-27T11:59:17.478Z,32.12
2018-07-27T12:00:17.646Z,31.34
2018-07-27T12:01:17.773Z,31.93
2018-07-27T12:02:17.919Z,32.22
2018-07-27T12:03:18.075Z,32.32
2018-07-27T12:04:18.230Z,32.12
2018-07-27T12:05:18.374Z,32.51
2018-07-27T12:06:18.528Z,32.42
2018-07-27T12:07:18.677Z,32.50
2018-07-27T12:08:18.822Z,32.20
2018-07-27T12:09:18.967Z,32.20
2018-07-27T12:10:19.119Z,32.01
2018-07-27T12:11:19.254Z,32.89
2018-07-27T12:12:19.391Z,32.71
2018-07-27T12:13:19.569Z,32.81
2018-07-27T12:14:19.861Z,32.51
2018-07-27T12:15:20.031Z,31.14
2018-07-27T12:16:20.005Z,31.26
2018-07-27T12:17:20.149Z,31.83
2018-07-27T12:18:20.309Z,31.73
2018-07-27T12:19:20.444Z,31.54
2018-07-27T12:20:20.590Z,32.12
2018-07-27T12:21:20.796Z,31.54
2018-07-27T12:22:20.882Z,30.26
2018-07-27T12:23:21.039Z,31.14
2018-07-27T12:24:21.200Z,31.34
2018-07-27T12:25:21.339Z,30.94
2018-07-27T12:26:21.508Z,31.04
2018-07-27T12:27:21.641Z,31.93
2018-07-27T12:28:21.772Z,30.26
2018-07-27T12:29:21.932Z,30.08
2018-07-27T12:30:22.076Z,29.98
2018-07-27T12:31:22.218Z,29.69
2018-07-27T12:32:22.357Z,30.67
2018-07-27T12:33:22.525Z,30.00
2018-07-27T12:34:22.660Z,29.70
2018-07-27T12:35:22.806Z,30.58
2018-07-27T12:36:22.961Z,29.50
2018-07-27T12:37:23.114Z,30.60
2018-07-27T12:38:23.267Z,29.91
2018-07-27T12:39:23.416Z,29.41
2018-07-27T12:40:23.574Z,29.52
2018-07-27T12:41:23.706Z,28.43
2018-07-27T12:42:23.839Z,29.11
2018-07-27T12:43:24.014Z,29.60
2018-07-27T12:44:24.163Z,29.30
2018-07-27T12:45:24.324Z,29.59
2018-07-27T12:46:24.475Z,29.88
2018-07-27T12:47:24.620Z,29.70
2018-07-27T12:48:24.769Z,29.49
2018-07-27T12:49:24.926Z,29.68
2018-07-27T12:50:25.086Z,29.79
2018-07-27T12:51:25.309Z,29.87
2018-07-27T12:52:25.375Z,29.77
2018-07-27T12:53:25.536Z,30.67
2018-07-27T12:54:25.724Z,31.14